Terminal Aerodrome Forecast
Issued by NWS Sterling, VA

Current Version | Previous Version | Text Only | Print | Product List | Glossary Off
Versions: 1 2 3 4 5 6 7 8 9 10 11 12 13 14 15 16 17 18 19 20 21 22 23 24 25 26 27 28 29 30 31

183
FTUS41 KLWX 031650 AAB
TAFDCA
TAF AMD
KDCA 031650Z 0317/0412 19007KT P6SM -RA OVC007 WS020/19045KT
     FM032000 19010KT 5SM -RA BR OVC030 WS020/19040KT
      TEMPO 0321/0323 2SM SHRA OVC015
     FM040100 VRB03KT P6SM VCSH OVC035
     FM040600 26004KT P6SM OVC060=

USA.gov is the U.S. government's official web portal to all federal, state and local government web resources and services.